Time;durP1;ratioP1;P1;durP2;ratioP2;P2;SDS_P1;SDS_P2;PMS_P1;PMS_P2;Temp;Humidity;BMP_temperature;BMP_pressure;BME280_temperature;BME280_humidity;BME280_pressure;Samples;Min_cycle;Max_cycle;Signal;HPM_P1;HPM_P2
2022/06/12 00:07:30;;;;;;;0.00;0.00;;;15.50;99.90;;;;;;6093362;23;20961;-89
2022/06/12 00:10:00;;;;;;;0.00;0.00;;;15.40;99.90;;;;;;6093099;23;20427;-88
2022/06/12 00:18:10;;;;;;;0.00;0.00;;;15.50;99.90;;;;;;6089533;23;20730;-88
2022/06/12 00:24:44;;;;;;;0.00;0.00;;;15.60;99.90;;;;;;6060524;23;20527;-89
2022/06/12 00:35:36;;;;;;;0.00;0.00;;;15.70;99.90;;;;;;5785077;24;20434;-89
2022/06/12 01:02:08;;;;;;;;;;;;;;;;;;;;;
2022/06/12 01:08:48;;;;;;;0.00;0.00;;;14.90;99.90;;;;;;5952163;24;21014;-88
2022/06/12 01:11:44;;;;;;;0.00;0.00;;;14.80;99.90;;;;;;5843296;24;20936;-89
2022/06/12 01:18:29;;;;;;;0.00;0.00;;;14.80;99.90;;;;;;5866158;24;21327;-90
2022/06/12 01:32:39;;;;;;;0.00;0.00;;;14.60;99.90;;;;;;5921612;24;20372;-90
2022/06/12 01:35:22;;;;;;;0.00;0.00;;;14.60;99.90;;;;;;5923064;24;20448;-89
2022/06/12 01:38:01;;;;;;;0.00;0.00;;;14.50;99.90;;;;;;5909595;24;21168;-89
2022/06/12 01:41:27;;;;;;;0.00;0.00;;;14.50;99.90;;;;;;5897825;24;20418;-89
2022/06/12 01:44:48;;;;;;;;;;;;;;;;;;;;;
2022/06/12 01:51:48;;;;;;;0.00;0.00;;;14.40;99.90;;;;;;5889393;24;20457;-93
2022/06/12 01:54:26;;;;;;;0.00;0.00;;;14.50;99.90;;;;;;5853915;24;21200;-89
2022/06/12 01:57:09;;;;;;;0.00;0.00;;;14.50;99.90;;;;;;5977828;24;20439;-91
2022/06/12 02:00:02;;;;;;;;;;;;;;;;;;;;;
2022/06/12 02:02:48;;;;;;;0.00;0.00;;;14.60;99.90;;;;;;6046291;23;20419;-91
2022/06/12 02:05:34;;;;;;;0.00;0.00;;;14.60;99.90;;;;;;6092618;23;20427;-91
2022/06/12 02:08:29;;;;;;;0.00;0.00;;;14.60;99.90;;;;;;6094886;23;20451;-92
2022/06/12 02:14:12;;;;;;;0.00;0.00;;;14.60;99.90;;;;;;6093051;23;21146;-92
2022/06/12 02:16:58;;;;;;;0.00;0.00;;;14.60;99.90;;;;;;6093807;23;20440;-91
2022/06/12 02:33:52;;;;;;;0.00;0.00;;;14.20;99.90;;;;;;6007742;23;20463;-91
2022/06/12 02:36:25;;;;;;;0.00;0.00;;;14.20;99.90;;;;;;6079970;23;20417;-92
2022/06/12 02:39:06;;;;;;;0.00;0.00;;;14.20;99.90;;;;;;6084014;23;20457;-89
2022/06/12 03:03:03;;;;;;;0.00;0.00;;;13.70;99.90;;;;;;6117670;23;20384;-91
2022/06/12 03:06:10;;;;;;;0.00;0.00;;;13.70;99.90;;;;;;6099631;23;20691;-90
2022/06/12 03:12:28;;;;;;;0.00;0.00;;;13.60;99.90;;;;;;5965567;23;20369;-90
2022/06/12 03:14:56;;;;;;;0.00;0.00;;;13.50;99.90;;;;;;5992982;23;20447;-92
2022/06/12 03:25:10;;;;;;;0.00;0.00;;;13.60;99.90;;;;;;6117881;23;20451;-90
2022/06/12 03:28:29;;;;;;;0.00;0.00;;;13.60;99.90;;;;;;6117391;23;20441;-90
2022/06/12 03:31:17;;;;;;;0.00;0.00;;;13.60;99.90;;;;;;6064308;23;20738;-91
2022/06/12 03:41:56;;;;;;;0.00;0.00;;;13.70;99.90;;;;;;5929656;24;20417;-90
2022/06/12 03:58:42;;;;;;;0.00;0.00;;;13.80;99.90;;;;;;5852835;24;20479;-89
2022/06/12 04:01:46;;;;;;;0.00;0.00;;;13.80;99.90;;;;;;5873040;24;20486;-89
2022/06/12 04:04:34;;;;;;;0.00;0.00;;;13.80;99.90;;;;;;5870844;24;20435;-90
2022/06/12 04:07:06;;;;;;;0.00;0.00;;;13.80;99.90;;;;;;5870571;24;20420;-89
2022/06/12 04:09:39;;;;;;;0.00;0.00;;;14.00;99.90;;;;;;5924232;24;21099;-91
2022/06/12 04:12:16;;;;;;;0.00;0.00;;;14.00;99.90;;;;;;5923596;24;20515;-90
2022/06/12 04:14:49;;;;;;;0.00;0.00;;;14.10;99.90;;;;;;5990973;23;20445;-88
2022/06/12 04:17:21;;;;;;;0.00;0.00;;;14.10;99.90;;;;;;6007735;23;20407;-90
2022/06/12 04:20:04;;;;;;;0.00;0.00;;;14.20;99.90;;;;;;6022879;23;20426;-91
2022/06/12 04:22:42;;;;;;;0.00;0.00;;;14.20;99.90;;;;;;6094373;23;20411;-91
2022/06/12 04:28:53;;;;;;;0.00;0.00;;;14.40;99.90;;;;;;6093082;23;20440;-90
2022/06/12 04:31:28;;;;;;;0.00;0.00;;;14.40;99.90;;;;;;6094755;23;20939;-90
2022/06/12 04:34:11;;;;;;;0.00;0.00;;;14.50;99.90;;;;;;6095361;23;20508;-91
2022/06/12 04:36:39;;;;;;;0.00;0.00;;;14.50;99.90;;;;;;6096250;23;20417;-90
2022/06/12 04:39:11;;;;;;;0.00;0.00;;;14.60;99.90;;;;;;6100631;23;20413;-91
2022/06/12 04:41:43;;;;;;;0.00;0.00;;;14.60;99.90;;;;;;5254665;23;10001096;-90
2022/06/12 04:44:15;;;;;;;0.00;0.00;;;14.70;99.90;;;;;;6098952;23;20251;-90
2022/06/12 04:46:49;;;;;;;0.00;0.00;;;14.80;99.90;;;;;;6100100;23;20412;-88
2022/06/12 04:52:06;;;;;;;0.00;0.00;;;14.90;99.90;;;;;;6036645;23;20438;-90
2022/06/12 04:54:35;;;;;;;0.00;0.00;;;15.00;99.90;;;;;;6038445;23;20458;-90
2022/06/12 04:57:04;;;;;;;0.00;0.00;;;15.10;99.90;;;;;;6065551;23;20433;-89
2022/06/12 04:59:35;;;;;;;0.00;0.00;;;15.20;99.90;;;;;;6065568;23;20488;-92
2022/06/12 05:02:03;;;;;;;0.00;0.00;;;15.20;99.90;;;;;;6077390;23;20405;-91
2022/06/12 05:04:32;;;;;;;0.00;0.00;;;15.30;99.90;;;;;;6072172;23;20873;-91
2022/06/12 05:07:01;;;;;;;0.00;0.00;;;15.40;99.90;;;;;;6062826;23;20635;-90
2022/06/12 05:09:31;;;;;;;0.00;0.00;;;15.50;99.90;;;;;;6063128;23;20469;-90
2022/06/12 05:12:01;;;;;;;0.00;0.00;;;15.60;99.90;;;;;;6072348;23;20416;-91
2022/06/12 05:14:31;;;;;;;0.00;0.00;;;15.70;99.90;;;;;;6094422;23;20624;-88
2022/06/12 05:17:15;;;;;;;0.00;0.00;;;15.80;99.90;;;;;;6095025;23;20472;-90
2022/06/12 05:19:49;;;;;;;0.00;0.00;;;15.90;99.90;;;;;;6095035;23;20738;-90
2022/06/12 05:22:21;;;;;;;0.00;0.00;;;16.00;99.90;;;;;;6094636;23;20409;-90
2022/06/12 05:24:57;;;;;;;0.00;0.00;;;16.10;99.90;;;;;;6094569;23;20448;-90
2022/06/12 05:27:39;;;;;;;0.00;0.00;;;16.30;99.90;;;;;;6095337;23;21074;-91
2022/06/12 05:30:25;;;;;;;;;;;;;;;;;;;;;
2022/06/12 05:33:05;;;;;;;0.00;0.00;;;17.20;99.90;;;;;;6094361;23;20459;-90
2022/06/12 05:35:46;;;;;;;0.00;0.00;;;17.40;99.90;;;;;;6094240;23;21122;-88
2022/06/12 05:38:17;;;;;;;0.00;0.00;;;17.50;99.90;;;;;;6095617;23;20426;-90
2022/06/12 05:41:00;;;;;;;0.00;0.00;;;17.50;99.90;;;;;;6099434;23;20414;-91
2022/06/12 05:46:43;;;;;;;0.00;0.00;;;17.40;99.90;;;;;;6093854;23;20538;-91
2022/06/12 05:55:21;;;;;;;0.00;0.00;;;17.40;99.90;;;;;;6023653;23;20459;-91
2022/06/12 05:57:56;;;;;;;0.00;0.00;;;17.40;99.90;;;;;;6073797;23;20520;-91
2022/06/12 06:01:17;;;;;;;0.00;0.00;;;17.50;99.90;;;;;;6107868;23;20869;-91
2022/06/12 06:03:53;;;;;;;0.00;0.00;;;17.40;99.90;;;;;;6009625;23;20500;-91
2022/06/12 06:06:35;;;;;;;0.00;0.00;;;17.50;99.90;;;;;;6099662;23;20418;-91
2022/06/12 06:09:22;;;;;;;0.00;0.00;;;17.50;99.90;;;;;;6099222;23;20465;-91
2022/06/12 06:12:18;;;;;;;0.00;0.00;;;17.60;99.90;;;;;;6096040;23;20894;-91
2022/06/12 06:14:48;;;;;;;0.00;0.00;;;17.80;99.90;;;;;;6096421;23;20487;-92
2022/06/12 06:20:36;;;;;;;0.00;0.00;;;17.80;99.90;;;;;;6109994;23;20472;-94
2022/06/12 06:23:20;;;;;;;0.00;0.00;;;17.90;99.90;;;;;;6108308;23;20959;-96
2022/06/12 06:26:11;;;;;;;0.00;0.00;;;18.00;99.90;;;;;;6115937;23;20508;-92
2022/06/12 06:43:30;;;;;;;0.00;0.00;;;18.50;99.90;;;;;;6085142;23;20435;-92
2022/06/12 06:48:58;;;;;;;0.00;0.00;;;18.60;99.90;;;;;;6082731;23;20412;-95
2022/06/12 07:20:41;;;;;;;;;;;;;;;;;;;;;
2022/06/12 07:23:40;;;;;;;0.00;0.00;;;19.40;99.90;;;;;;6072270;23;20510;-93
2022/06/12 07:35:03;;;;;;;0.00;0.00;;;19.60;99.90;;;;;;6123067;23;20466;-94
2022/06/12 07:38:01;;;;;;;0.00;0.00;;;19.60;99.90;;;;;;6108869;23;20430;-94
2022/06/12 07:40:50;;;;;;;0.00;0.00;;;19.70;99.90;;;;;;6137897;23;20452;-94
2022/06/12 07:52:22;;;;;;;0.00;0.00;;;19.90;99.90;;;;;;6118000;23;20459;-91
2022/06/12 07:54:51;;;;;;;0.00;0.00;;;20.00;99.90;;;;;;6122438;23;20473;-90
2022/06/12 07:57:26;;;;;;;0.00;0.00;;;20.10;99.90;;;;;;6122578;23;20428;-91
2022/06/12 08:02:43;;;;;;;0.00;0.00;;;20.20;99.90;;;;;;6131296;23;20503;-92
2022/06/12 08:05:15;;;;;;;0.00;0.00;;;20.30;99.90;;;;;;6128912;23;20509;-91
2022/06/12 08:07:44;;;;;;;0.00;0.00;;;20.40;99.90;;;;;;6123270;23;20431;-90
2022/06/12 08:10:14;;;;;;;0.00;0.00;;;20.40;99.90;;;;;;6122669;23;20474;-89
2022/06/12 08:12:46;;;;;;;0.00;0.00;;;20.40;99.90;;;;;;6121486;23;20423;-87
2022/06/12 08:15:22;;;;;;;0.00;0.00;;;20.60;99.90;;;;;;6122646;23;20494;-88
2022/06/12 08:18:38;;;;;;;0.00;0.00;;;20.60;99.90;;;;;;6128305;23;20404;-92
2022/06/12 08:21:16;;;;;;;0.00;0.00;;;20.60;99.90;;;;;;6123152;23;20411;-88
2022/06/12 08:24:11;;;;;;;0.00;0.00;;;20.70;99.90;;;;;;6112632;23;20431;-86
2022/06/12 08:26:48;;;;;;;0.00;0.00;;;20.70;99.90;;;;;;6121123;23;20437;-87
2022/06/12 08:30:17;;;;;;;0.00;0.00;;;20.70;99.90;;;;;;6120104;23;20426;-90
2022/06/12 08:38:53;;;;;;;0.00;0.00;;;21.00;99.90;;;;;;6094785;23;21096;-87
2022/06/12 08:56:52;;;;;;;0.00;0.00;;;21.20;99.90;;;;;;6093563;23;20465;-91
2022/06/12 09:03:02;;;;;;;0.00;0.00;;;21.40;99.90;;;;;;6042810;23;20423;-85
2022/06/12 09:05:45;;;;;;;0.00;0.00;;;21.50;99.90;;;;;;6106002;23;20429;-89
2022/06/12 09:08:29;;;;;;;0.00;0.00;;;21.70;99.90;;;;;;6115760;23;20404;-90
2022/06/12 09:11:05;;;;;;;0.00;0.00;;;21.70;99.90;;;;;;6115190;23;20451;-89
2022/06/12 09:13:52;;;;;;;0.00;0.00;;;21.70;99.90;;;;;;6114670;23;20607;-87
2022/06/12 09:16:45;;;;;;;0.00;0.00;;;21.60;99.90;;;;;;6105410;23;20473;-88
2022/06/12 10:31:20;;;;;;;0.00;0.00;;;22.60;99.90;;;;;;5894090;24;20539;-91
2022/06/12 10:42:49;;;;;;;0.00;0.00;;;23.20;99.90;;;;;;6122344;23;20610;-91
2022/06/12 10:45:28;;;;;;;0.00;0.00;;;23.40;99.90;;;;;;6096717;23;20412;-90
2022/06/12 10:48:24;;;;;;;0.00;0.00;;;23.60;99.90;;;;;;6096034;23;20506;-94
2022/06/12 10:51:01;;;;;;;0.00;0.00;;;23.70;99.90;;;;;;6097837;23;20444;-93
2022/06/12 10:54:05;;;;;;;0.00;0.00;;;23.90;99.90;;;;;;6102420;23;20982;-92
2022/06/12 10:56:53;;;;;;;0.00;0.00;;;24.00;99.90;;;;;;6118710;23;20420;-92
2022/06/12 10:59:57;;;;;;;0.00;0.00;;;24.20;99.90;;;;;;6100173;23;20428;-92
2022/06/12 11:03:03;;;;;;;0.00;0.00;;;24.50;99.90;;;;;;6088043;23;20433;-92
2022/06/12 11:13:19;;;;;;;0.00;0.00;;;24.90;99.90;;;;;;5993629;23;20919;-89
2022/06/12 11:16:15;;;;;;;0.00;0.00;;;24.90;99.40;;;;;;6006471;23;20485;-90
2022/06/12 11:19:04;;;;;;;0.00;0.00;;;25.00;99.70;;;;;;6008804;23;20425;-90
2022/06/12 11:21:56;;;;;;;0.00;0.00;;;25.00;99.90;;;;;;6010635;23;20430;-91
2022/06/12 11:24:29;;;;;;;0.00;0.00;;;25.00;99.80;;;;;;6006342;23;20501;-91
2022/06/12 11:27:25;;;;;;;0.00;0.00;;;25.10;99.70;;;;;;6005956;23;20566;-91
2022/06/12 11:30:20;;;;;;;0.00;0.00;;;25.20;99.00;;;;;;6008649;23;20418;-90
2022/06/12 11:33:16;;;;;;;0.00;0.00;;;25.20;99.10;;;;;;6004738;23;20890;-91
2022/06/12 11:39:21;;;;;;;0.00;0.00;;;25.00;98.70;;;;;;6005740;23;20413;-93
2022/06/12 11:42:21;;;;;;;0.00;0.00;;;24.70;98.80;;;;;;6005009;23;20420;-90
2022/06/12 11:45:03;;;;;;;0.00;0.00;;;24.50;98.60;;;;;;6080952;23;20455;-91
2022/06/12 11:47:50;;;;;;;0.00;0.00;;;24.30;99.00;;;;;;6095044;23;20442;-92
2022/06/12 11:50:33;;;;;;;0.00;0.00;;;24.20;99.60;;;;;;6096508;23;20413;-93
2022/06/12 11:53:14;;;;;;;0.00;0.00;;;24.20;99.90;;;;;;6106383;23;20404;-93
2022/06/12 11:55:51;;;;;;;0.00;0.00;;;24.30;99.90;;;;;;6110112;23;20406;-92
2022/06/12 11:58:41;;;;;;;0.00;0.00;;;24.50;99.90;;;;;;6099369;23;20418;-92
2022/06/12 12:01:20;;;;;;;0.00;0.00;;;24.60;99.90;;;;;;6096522;23;20508;-92
2022/06/12 12:04:08;;;;;;;0.00;0.00;;;24.60;99.40;;;;;;6097398;23;20895;-90
2022/06/12 12:06:56;;;;;;;0.00;0.00;;;24.60;99.30;;;;;;6094460;23;20415;-92
2022/06/12 12:09:50;;;;;;;0.00;0.00;;;24.50;99.00;;;;;;6095159;23;20401;-91
2022/06/12 12:12:24;;;;;;;0.00;0.00;;;24.40;99.10;;;;;;6093960;23;20470;-92
2022/06/12 12:14:54;;;;;;;0.00;0.00;;;24.30;99.90;;;;;;6096339;23;20489;-92
2022/06/12 12:17:30;;;;;;;0.00;0.00;;;24.20;99.70;;;;;;6100474;23;20471;-93
2022/06/12 12:20:31;;;;;;;0.00;0.00;;;24.10;99.80;;;;;;6100006;23;21068;-91
2022/06/12 12:23:19;;;;;;;0.00;0.00;;;24.10;99.90;;;;;;5980858;23;20548;-92
2022/06/12 12:25:52;;;;;;;0.00;0.00;;;24.20;99.90;;;;;;6048658;23;20417;-92
2022/06/12 12:28:50;;;;;;;0.00;0.00;;;24.20;99.90;;;;;;6094951;23;20410;-92
2022/06/12 12:31:23;;;;;;;0.00;0.00;;;24.10;99.90;;;;;;6091393;23;20455;-91
2022/06/12 12:33:55;;;;;;;0.00;0.00;;;24.10;99.50;;;;;;6092866;23;21152;-91
2022/06/12 12:42:30;;;;;;;0.00;0.00;;;24.20;99.90;;;;;;6093147;23;20481;-91
2022/06/12 12:45:13;;;;;;;0.00;0.00;;;24.20;99.90;;;;;;6092597;23;21110;-92
2022/06/12 12:47:47;;;;;;;0.00;0.00;;;24.10;99.60;;;;;;6094261;23;20425;-92
2022/06/12 12:50:19;;;;;;;0.00;0.00;;;24.00;99.90;;;;;;6099812;23;20460;-93
2022/06/12 12:52:53;;;;;;;0.00;0.00;;;24.00;99.90;;;;;;6101270;23;20472;-96
2022/06/12 12:55:35;;;;;;;0.00;0.00;;;23.90;99.90;;;;;;6096958;23;20854;-92
2022/06/12 12:58:19;;;;;;;0.00;0.00;;;23.90;99.90;;;;;;6096729;23;20417;-92
2022/06/12 13:01:03;;;;;;;0.00;0.00;;;23.90;99.90;;;;;;6095249;23;20418;-92
2022/06/12 13:03:39;;;;;;;0.00;0.00;;;23.90;99.90;;;;;;6096147;23;20471;-91
2022/06/12 13:06:37;;;;;;;0.00;0.00;;;24.00;99.90;;;;;;6095222;23;20863;-91
2022/06/12 13:09:26;;;;;;;0.00;0.00;;;24.10;99.90;;;;;;6095272;23;20487;-93
2022/06/12 13:12:13;;;;;;;0.00;0.00;;;24.30;99.90;;;;;;6095137;23;20442;-91
2022/06/12 13:15:10;;;;;;;0.00;0.00;;;24.50;99.90;;;;;;6097952;23;20501;-95
2022/06/12 13:17:57;;;;;;;0.00;0.00;;;24.50;99.90;;;;;;6108499;23;20410;-93
2022/06/12 13:20:49;;;;;;;0.00;0.00;;;24.40;99.90;;;;;;6097915;23;20973;-90
2022/06/12 13:23:40;;;;;;;0.00;0.00;;;24.50;99.90;;;;;;6096766;23;20456;-92
2022/06/12 13:26:21;;;;;;;0.00;0.00;;;24.50;99.90;;;;;;6099119;23;20409;-92
2022/06/12 13:29:00;;;;;;;0.00;0.00;;;24.40;99.90;;;;;;6098829;23;20439;-91
2022/06/12 13:31:33;;;;;;;0.00;0.00;;;24.10;99.90;;;;;;6100312;23;20478;-93
2022/06/12 13:34:19;;;;;;;0.00;0.00;;;24.00;99.90;;;;;;6104334;23;20540;-95
2022/06/12 13:37:00;;;;;;;0.00;0.00;;;23.70;99.90;;;;;;6099317;23;20498;-90
2022/06/12 13:39:38;;;;;;;0.00;0.00;;;23.50;99.90;;;;;;6093024;23;20925;-87
2022/06/12 13:42:11;;;;;;;0.00;0.00;;;23.30;99.90;;;;;;6091249;23;20819;-90
2022/06/12 13:53:01;;;;;;;;;;;;;;;;;;;;;
2022/06/12 13:56:01;;;;;;;0.00;0.00;;;23.20;99.90;;;;;;5908606;24;20427;-91
2022/06/12 14:36:54;;;;;;;0.00;0.00;;;22.40;99.90;;;;;;6097222;23;20440;-87
2022/06/12 14:39:36;;;;;;;0.00;0.00;;;21.90;99.90;;;;;;6095508;23;20413;-86
2022/06/12 14:42:43;;;;;;;0.00;0.00;;;21.20;99.90;;;;;;6098254;23;20401;-94
2022/06/12 14:45:51;;;;;;;;;;;;;;;;;;;;;
2022/06/12 14:48:24;;;;;;;0.00;0.00;;;19.80;99.90;;;;;;6079066;23;20412;-89
2022/06/12 14:51:05;;;;;;;0.00;0.00;;;19.20;99.90;;;;;;6069808;23;20504;-89
2022/06/12 14:54:13;;;;;;;0.00;0.00;;;18.80;99.90;;;;;;6069467;23;20534;-89
2022/06/12 14:56:55;;;;;;;0.00;0.00;;;18.50;99.90;;;;;;6068663;23;20417;-88
2022/06/12 15:03:17;;;;;;;0.00;0.00;;;18.00;99.90;;;;;;6067725;23;20438;-87
2022/06/12 15:06:30;;;;;;;0.00;0.00;;;18.10;99.90;;;;;;6087087;23;20461;-89
2022/06/12 15:09:26;;;;;;;0.00;0.00;;;18.20;99.90;;;;;;6060724;23;20417;-92
2022/06/12 15:12:02;;;;;;;0.00;0.00;;;18.40;99.90;;;;;;6065739;23;20443;-86
2022/06/12 15:14:31;;;;;;;0.00;0.00;;;18.50;99.90;;;;;;6069795;23;20510;-90
2022/06/12 15:17:07;;;;;;;0.00;0.00;;;18.60;99.90;;;;;;6069367;23;20435;-88
2022/06/12 15:19:35;;;;;;;0.00;0.00;;;18.80;99.90;;;;;;6069228;23;20468;-88
2022/06/12 15:22:03;;;;;;;0.00;0.00;;;19.10;99.90;;;;;;6068764;23;20398;-89
2022/06/12 15:24:33;;;;;;;0.00;0.00;;;19.40;99.90;;;;;;6070299;23;21003;-88
2022/06/12 15:30:00;;;;;;;0.00;0.00;;;19.80;99.90;;;;;;6067985;23;20441;-86
2022/06/12 15:32:35;;;;;;;0.00;0.00;;;20.00;99.90;;;;;;6070014;23;20437;-92
2022/06/12 15:35:06;;;;;;;0.00;0.00;;;20.10;99.90;;;;;;6074415;23;20455;-92
2022/06/12 15:37:37;;;;;;;0.00;0.00;;;20.20;99.90;;;;;;6069770;23;20420;-90
2022/06/12 15:40:14;;;;;;;0.00;0.00;;;20.30;99.90;;;;;;6067684;23;20417;-89
2022/06/12 15:42:44;;;;;;;0.00;0.00;;;20.40;99.90;;;;;;6069915;23;20416;-90
2022/06/12 15:45:21;;;;;;;0.00;0.00;;;20.40;99.90;;;;;;6087966;23;20445;-89
2022/06/12 15:47:50;;;;;;;0.00;0.00;;;20.50;99.90;;;;;;6072114;23;20416;-87
2022/06/12 15:50:20;;;;;;;0.00;0.00;;;20.40;99.90;;;;;;6070916;23;20394;-88
2022/06/12 15:52:48;;;;;;;0.00;0.00;;;20.20;99.90;;;;;;6070441;23;20440;-89
2022/06/12 15:55:18;;;;;;;0.00;0.00;;;20.10;99.90;;;;;;6067151;23;20420;-87
2022/06/12 15:57:51;;;;;;;0.00;0.00;;;20.00;99.90;;;;;;6064959;23;20428;-86
2022/06/12 16:00:21;;;;;;;0.00;0.00;;;20.00;99.90;;;;;;6065220;23;20421;-87
2022/06/12 16:02:51;;;;;;;0.00;0.00;;;20.10;99.90;;;;;;6064745;23;20414;-87
2022/06/12 16:05:26;;;;;;;0.00;0.00;;;20.20;99.90;;;;;;6066572;23;20421;-86
2022/06/12 16:07:55;;;;;;;0.00;0.00;;;20.40;99.90;;;;;;6065779;23;20436;-88
2022/06/12 16:10:28;;;;;;;0.00;0.00;;;20.50;99.90;;;;;;6068587;23;20390;-89
2022/06/12 16:12:58;;;;;;;0.00;0.00;;;20.70;99.90;;;;;;6068807;23;20448;-89
2022/06/12 16:15:27;;;;;;;0.00;0.00;;;20.80;99.90;;;;;;6071019;23;20409;-89
2022/06/12 16:17:57;;;;;;;0.00;0.00;;;20.80;99.90;;;;;;6070265;23;20940;-90
2022/06/12 16:20:27;;;;;;;0.00;0.00;;;20.70;99.90;;;;;;6070769;23;20440;-90
2022/06/12 16:22:56;;;;;;;0.00;0.00;;;20.60;99.90;;;;;;6071532;23;20413;-91
2022/06/12 16:25:25;;;;;;;0.00;0.00;;;20.50;99.90;;;;;;6069451;23;20433;-87
2022/06/12 16:27:54;;;;;;;0.00;0.00;;;20.60;99.90;;;;;;6067819;23;20668;-89
2022/06/12 16:30:26;;;;;;;0.00;0.00;;;20.50;99.90;;;;;;6067507;23;20894;-88
2022/06/12 16:32:55;;;;;;;0.00;0.00;;;20.50;99.90;;;;;;6065726;23;20437;-90
2022/06/12 16:35:23;;;;;;;0.00;0.00;;;20.50;99.90;;;;;;6066646;23;20851;-86
2022/06/12 16:37:51;;;;;;;0.00;0.00;;;20.60;99.90;;;;;;6068174;23;20428;-89
2022/06/12 16:40:29;;;;;;;0.00;0.00;;;20.70;99.90;;;;;;6065379;23;20413;-87
2022/06/12 16:43:14;;;;;;;0.00;0.00;;;20.60;99.90;;;;;;6086166;23;20388;-88
2022/06/12 16:46:05;;;;;;;0.00;0.00;;;20.60;99.90;;;;;;6064651;23;20413;-87
2022/06/12 16:48:35;;;;;;;0.00;0.00;;;20.50;99.90;;;;;;6065767;23;20465;-87
2022/06/12 16:51:09;;;;;;;0.00;0.00;;;20.40;99.90;;;;;;6065305;23;20410;-88
2022/06/12 16:53:39;;;;;;;0.00;0.00;;;20.40;99.90;;;;;;6062550;23;20485;-88
2022/06/12 16:56:09;;;;;;;0.00;0.00;;;20.60;99.90;;;;;;6063705;23;21029;-89
2022/06/12 16:58:47;;;;;;;0.00;0.00;;;20.60;99.90;;;;;;6064034;23;20409;-88
2022/06/12 17:01:19;;;;;;;0.00;0.00;;;20.60;99.90;;;;;;6065610;23;20409;-88
2022/06/12 17:03:50;;;;;;;0.00;0.00;;;20.50;99.90;;;;;;6063528;23;20513;-88
2022/06/12 17:06:21;;;;;;;0.00;0.00;;;20.40;99.90;;;;;;6062857;23;20428;-87
2022/06/12 17:08:52;;;;;;;0.00;0.00;;;20.40;99.90;;;;;;6064027;23;20472;-88
2022/06/12 17:11:26;;;;;;;0.00;0.00;;;20.40;99.90;;;;;;6064062;23;20438;-89
2022/06/12 17:13:59;;;;;;;0.00;0.00;;;20.60;99.90;;;;;;6063131;23;20449;-88
2022/06/12 17:16:29;;;;;;;0.00;0.00;;;20.80;99.90;;;;;;6063730;23;20445;-88
2022/06/12 17:21:43;;;;;;;0.00;0.00;;;20.80;99.90;;;;;;6063229;23;20417;-88
2022/06/12 17:24:16;;;;;;;0.00;0.00;;;20.60;99.90;;;;;;6065194;23;20436;-90
2022/06/12 17:26:55;;;;;;;0.00;0.00;;;20.40;99.90;;;;;;6065065;23;20413;-88
2022/06/12 17:29:40;;;;;;;0.00;0.00;;;20.30;99.90;;;;;;6063288;23;20424;-89
2022/06/12 17:32:11;;;;;;;0.00;0.00;;;20.10;99.90;;;;;;6064989;23;20436;-89
2022/06/12 17:34:41;;;;;;;0.00;0.00;;;19.90;99.90;;;;;;6063208;23;20957;-83
2022/06/12 17:37:55;;;;;;;0.00;0.00;;;19.80;99.90;;;;;;6060479;23;21122;-83
2022/06/12 17:45:26;;;;;;;;;;;;;;;;;;;;;
2022/06/12 17:48:16;;;;;;;0.00;0.00;;;19.50;99.90;;;;;;5843620;24;20420;-88
2022/06/12 17:50:55;;;;;;;0.00;0.00;;;19.30;99.90;;;;;;5878990;24;20506;-86
2022/06/12 17:53:28;;;;;;;0.00;0.00;;;19.30;99.90;;;;;;5946867;24;20525;-87
2022/06/12 18:10:05;;;;;;;0.00;0.00;;;19.00;99.90;;;;;;6099331;23;20451;-89
2022/06/12 18:13:03;;;;;;;0.00;0.00;;;19.00;99.90;;;;;;6097316;23;20422;-88
2022/06/12 18:19:04;;;;;;;0.00;0.00;;;18.90;99.90;;;;;;6061793;23;20548;-90
2022/06/12 18:21:40;;;;;;;0.00;0.00;;;18.80;99.90;;;;;;6073393;23;20422;-91
2022/06/12 18:24:09;;;;;;;0.00;0.00;;;18.70;99.90;;;;;;6071883;23;21009;-86
2022/06/12 18:26:38;;;;;;;0.00;0.00;;;18.70;99.90;;;;;;6074287;23;20419;-91
2022/06/12 18:47:47;;;;;;;0.00;0.00;;;18.10;99.90;;;;;;5865351;24;20582;-86
2022/06/12 18:50:53;;;;;;;0.00;0.00;;;18.10;99.90;;;;;;5863630;24;20606;-87
2022/06/12 18:53:31;;;;;;;0.00;0.00;;;17.90;99.90;;;;;;5919183;24;20460;-88
2022/06/12 18:56:33;;;;;;;0.00;0.00;;;17.90;99.90;;;;;;5953568;23;20413;-85
2022/06/12 18:59:29;;;;;;;0.00;0.00;;;17.90;99.90;;;;;;6004462;23;20438;-87
2022/06/12 19:06:46;;;;;;;0.00;0.00;;;17.70;99.90;;;;;;5921504;24;21082;-88
2022/06/12 19:17:46;;;;;;;;;;;;;;;;;;;;;
2022/06/12 19:31:36;;;;;;;0.00;0.00;;;16.90;99.90;;;;;;5768992;24;20491;-87
2022/06/12 20:20:24;;;;;;;0.00;0.00;;;15.80;99.90;;;;;;5718767;24;20572;-87
2022/06/12 20:23:37;;;;;;;0.00;0.00;;;15.70;99.90;;;;;;5914972;24;20424;-85
2022/06/12 20:42:43;;;;;;;0.00;0.00;;;15.50;99.90;;;;;;5740746;25;20420;-86
2022/06/12 20:57:20;;;;;;;0.00;0.00;;;15.20;99.90;;;;;;5916236;24;20413;-86
2022/06/12 20:59:52;;;;;;;0.00;0.00;;;15.10;99.90;;;;;;5915691;24;20426;-87
2022/06/12 21:02:23;;;;;;;0.00;0.00;;;15.10;99.90;;;;;;5901191;24;20544;-86
2022/06/12 21:05:03;;;;;;;0.00;0.00;;;15.10;99.90;;;;;;5897509;24;20430;-88
2022/06/12 21:07:53;;;;;;;0.00;0.00;;;15.10;99.90;;;;;;5900277;24;20403;-89
2022/06/12 21:39:45;;;;;;;0.00;0.00;;;14.70;99.90;;;;;;5656231;25;20570;-85
2022/06/12 21:46:07;;;;;;;0.00;0.00;;;14.70;99.90;;;;;;5777349;24;20413;-87
2022/06/12 22:41:25;;;;;;;0.00;0.00;;;14.00;99.90;;;;;;6116859;23;20447;-85
2022/06/12 22:44:46;;;;;;;0.00;0.00;;;13.90;99.90;;;;;;6118684;23;20419;-86
2022/06/12 23:12:16;;;;;;;0.00;0.00;;;13.90;99.90;;;;;;5829097;24;20482;-86
